Latest Coastal Weather Observations for Adelaide Airport

IDS60701

Issued at 11:21 pm CST Saturday 1 August 2015 (issued every 10 minutes, with the page automatically refreshed every 10 minutes)

About coastal observations | Map of coastal stations | Coastal observations for SA | Marine services | Other Formats
Station Details ID: 023034 Name: ADELAIDE AIRPORT Lat: -34.95 Lon: 138.52 Height: 2.0 m
Data from the previous 72 hours. | See also: Recent months at Adelaide Airport
Date/Time
CST
Temp

°C
Wind Pressure Rain
since 9am
mm
Weather Cloud Vis
km
Sea
Height
m
Swell
Dir
 
Speed
knots
Gust
knots
hPa Trend Height
m
Period
s
Dir
01/11:00pm 8.7 SW 2 3 1019.0 - 5.8 - Mostly clear 10 - - - -
01/10:30pm 8.7 WSW 4 5 1019.1 - 5.8 - Mostly clear 10 - - - -
01/10:00pm 8.9 SW 5 6 1018.7 - 5.6 Rain Mostly clear 8 - - - -
01/09:56pm 8.9 SW 5 6 1018.7 - 5.6 Rain Mostly clear 7 - - - -
01/09:30pm 9.3 SSW 6 6 1018.7 - 4.8 - Mostly clear 6 - - - -
01/09:00pm 9.4 SSE 5 6 1018.2 R 4.0 Rain Cloudy 7 - - - -
01/08:51pm 9.5 S 6 6 1017.9 - 4.0 Rain Mostly clear 7 - - - -
01/08:30pm 9.6 S 5 6 1017.8 - 3.8 - Mostly clear 9 - - - -
01/08:00pm 9.9 S 5 6 1018.0 - 3.2 Rain Mostly clear 10 - - - -
01/07:30pm 10.2 SW 5 7 1017.8 - 3.0 - Mostly clear 10 - - - -
01/07:00pm 10.1 NE 3 4 1017.4 - 3.0 - Cloudy 10 - - - -
01/06:30pm 10.2 ESE 4 5 1017.1 - 3.0 - Cloudy 10 - - - -
01/06:00pm 10.4 SSW 7 9 1017.0 R 3.0 Distant precip. Cloudy 12 - - - -
01/05:30pm 10.6 SSW 5 5 1016.8 - 3.0 - Mostly clear 10 - - - -
01/05:00pm 10.8 SW 7 9 1016.4 - 3.0 - Mostly clear 10 - - - -
01/04:30pm 11.4 CALM 0 0 1016.3 - 3.0 - Mostly clear 10 - - - -
01/04:00pm 11.5 ENE 5 5 1016.0 - 3.0 Drizzle Mostly clear 10 - - - -
01/03:30pm 11.4 ESE 8 10 1015.6 - 3.0 - Mostly clear 10 - - - -
01/03:00pm 11.5 SE 7 9 1015.9 F 3.0 Drizzle Cloudy 12 - - - -
01/02:30pm 11.3 ESE 7 8 1016.3 - 3.0 - Mostly clear 10 - - - -
01/02:00pm 11.7 SE 5 6 1016.0 - 3.0 - Mostly clear 10 - - - -
01/01:30pm 11.5 SSE 5 6 1016.2 - 3.0 - Mostly clear 10 - - - -
01/01:00pm 11.2 WSW 8 12 1018.5 - 3.0 Rain Mostly clear 9 - - - -
01/12:30pm 11.2 S 8 13 1015.9 - 2.8 - Mostly clear 10 - - - -
01/12:23pm 11.3 E 9 13 1016.0 - 2.8 Rain Mostly clear 10 - - - -
01/12:00pm 11.1 E 1 4 1017.4 R 2.2 Rain Cloudy 6 - - - -
01/11:51am 11.0 SSW 6 12 1018.4 - 2.0 Rain Mostly clear 7 - - - -
01/11:30am 11.1 SSW 9 11 1017.8 - 1.6 - Mostly clear 10 - - - -
01/11:00am 10.9 SSW 4 7 1016.7 - 1.6 Rain Mostly clear 10 - - - -
01/10:30am 10.9 SSE 5 7 1016.9 - 1.2 - Mostly clear 9 - - - -
01/10:00am 11.1 SSE 8 11 1016.9 - 0.6 Rain Mostly clear 10 - - - -
01/09:49am 11.0 SSE 9 12 1016.4 - 0.6 Rain Partly cloudy 7 - - - -
01/09:30am 11.1 S 8 11 1017.1 - 0.0 - Partly cloudy 8 - - - -
01/09:00am 11.3 S 9 13 1016.7 R 5.8 Rain Cloudy 12 - - - -
01/08:30am 11.2 SSW 7 8 1016.2 - 5.8 - Mostly clear 10 - - - -
01/08:08am 11.1 SSW 6 9 1016.2 - 5.6 Rain Mostly clear 9 - - - -
01/08:00am 11.1 SSW 7 9 1016.2 - 5.6 Rain Mostly clear 7 - - - -
01/07:30am 11.2 S 5 6 1015.8 - 4.6 - Mostly clear 6 - - - -
01/07:00am 11.3 SSW 6 9 1015.4 - 3.2 Rain Mostly clear 5 - - - -
01/06:35am 11.5 SSW 5 6 1014.7 - 3.0 Rain Mostly clear 5 - - - -
01/06:30am 11.5 SSW 5 6 1014.7 - 3.0 - Mostly clear 8 - - - -
01/06:00am 11.5 SSW 6 9 1014.0 R 2.2 Rain Cloudy 8 - - - -
01/05:30am 11.3 SSW 8 11 1013.9 - 2.0 - Mostly clear 8 - - - -
01/05:00am 11.2 SSW 13 19 1013.8 - 1.8 Rain Mostly clear 4 - - - -
01/04:30am 13.1 NW 12 17 1012.7 - 1.4 - Partly cloudy 3 - - - -
01/04:02am 13.3 NNW 12 15 1012.4 - 1.0 Rain Mostly clear 6 - - - -
01/04:00am 13.3 NNW 12 15 1012.3 - 1.0 Rain Mostly clear 8 - - - -
01/03:30am 13.5 NNW 15 18 1012.4 - 1.0 - Mostly clear 10 - - - -
01/03:00am 13.6 NNW 14 19 1012.5 S 1.0 Fine Cloudy 20 - - - -
01/02:30am 13.6 NNW 13 17 1012.7 - 0.6 - Mostly clear 10 - - - -
01/02:00am 14.1 NNW 13 17 1012.8 - 0.2 Rain Mostly clear 10 - - - -
01/01:30am 14.0 NNW 13 17 1012.6 - 0.2 - Mostly clear 10 - - - -
01/01:00am 14.2 NNW 14 19 1012.7 - 0.0 - Mostly clear 10 - - - -
01/12:30am 14.2 N 15 19 1012.9 - 0.0 - Mostly clear 10 - - - -
01/12:00am 14.0 N 14 18 1013.2 F 0.0 Fine Cloudy 30 - - - -
 
Date/Time
CST
Temp

°C
Wind Pressure Rain
since 9am
mm
Weather Cloud Vis
km
Sea
Height
m
Swell
Dir
 
Speed
knots
Gust
knots
hPa Trend Height
m
Period
s
Dir
31/11:30pm 13.8 N 13 18 1013.5 - 0.0 - Mostly cloudy 10 - - - -
31/11:00pm 14.1 N 11 16 1013.7 - 0.0 - Partly cloudy 10 - - - -
31/10:30pm 14.2 N 10 15 1013.9 - 0.0 - Cloudy 10 - - - -
31/10:00pm 13.8 N 9 10 1014.1 - 0.0 - Partly cloudy 10 - - - -
31/09:30pm 13.1 NE 7 8 1014.0 - 0.0 - Cloudy 10 - - - -
31/09:00pm 13.0 NE 7 7 1014.3 F 0.0 Fine Cloudy 30 - - - -
31/08:30pm 12.8 NE 7 7 1014.4 - 0.0 - Cloudy 10 - - - -
31/08:00pm 12.5 NE 7 9 1014.3 - 0.0 - - 10 - - - -
31/07:30pm 12.6 NE 5 7 1014.4 - 0.0 - - 10 - - - -
31/07:00pm 12.6 NE 4 5 1014.5 - 0.0 - - 10 - - - -
31/06:30pm 13.1 N 4 5 1014.6 - 0.0 - - 10 - - - -
31/06:00pm 14.0 N 6 7 1014.6 F 0.0 Fine Mostly cloudy 35 - - - -
31/05:30pm 14.1 N 7 9 1014.6 - 0.0 - Partly cloudy 10 - - - -
31/05:00pm 14.7 NNW 6 7 1014.8 - 0.0 - Mostly clear 10 - - - -
31/04:30pm 14.8 NNW 7 9 1015.3 - 0.0 - Mostly clear 10 - - - -
31/04:00pm 14.8 NNW 11 15 1015.6 - 0.0 - Partly cloudy 10 - - - -
31/03:30pm 14.8 NW 10 12 1015.9 - 0.0 - Partly cloudy 10 - - - -
31/03:00pm 15.2 NNW 12 16 1015.9 F 0.0 Fine Mostly cloudy 35 - - - -
31/02:30pm 15.7 N 15 19 1016.1 - 0.0 - Mostly clear 10 - - - -
31/02:00pm 15.5 NNW 15 19 1016.6 - 0.0 - Mostly clear 10 - - - -
31/01:30pm 15.4 NNW 14 18 1017.1 - 0.0 - Mostly clear 10 - - - -
31/01:00pm 15.0 N 14 20 1017.6 - 0.0 - Mostly clear 10 - - - -
31/12:30pm 14.9 N 13 17 1018.5 - 0.0 - Mostly clear 10 - - - -
31/12:00pm 14.1 N 12 16 1019.3 F 0.0 Fine Mostly cloudy 25 - - - -
31/11:30am 13.8 NNE 11 15 1019.9 - 0.0 - Mostly clear 10 - - - -
31/11:00am 13.7 N 10 14 1020.5 - 0.0 - Mostly clear 10 - - - -
31/10:30am 12.2 NNE 10 13 1020.8 - 0.0 - Mostly cloudy 10 - - - -
31/10:00am 11.4 NNE 10 14 1021.1 - 0.0 - Mostly cloudy 10 - - - -
31/09:30am 10.3 NE 7 7 1021.3 - 0.0 - Mostly cloudy 10 - - - -
31/09:00am 8.1 NNE 5 6 1021.9 F 0.0 Fine Mostly cloudy 25 - - - -
31/08:30am 6.2 ENE 4 5 1021.9 - 0.0 - Mostly clear 10 - - - -
31/08:00am 6.0 SW 1 4 1022.0 - 0.0 - Mostly clear 10 - - - -
31/07:30am 5.1 N 5 7 1022.1 - 0.0 - Mostly cloudy 10 - - - -
31/07:00am 3.7 NE 4 6 1022.0 - 0.0 - Mostly cloudy 10 - - - -
31/06:30am 3.9 NE 5 6 1021.6 - 0.0 - Partly cloudy 10 - - - -
31/06:00am 3.0 CALM 0 0 1021.6 F 0.0 Fine Mostly clear 30 - - - -
31/05:30am 3.8 CALM 0 0 1021.5 - 0.0 - - 10 - - - -
31/05:00am 3.6 ENE 4 4 1021.2 - 0.0 - - 10 - - - -
31/04:30am 3.8 ENE 4 4 1021.3 - 0.0 - Mostly clear 10 - - - -
31/04:00am 4.3 ENE 4 5 1021.5 - 0.0 - Mostly clear 10 - - - -
31/03:30am 4.4 ESE 4 5 1021.5 - 0.0 - Mostly clear 10 - - - -
31/03:00am 5.1 ESE 4 5 1021.8 F 0.0 Fine Partly cloudy 30 - - - -
31/02:30am 5.9 E 4 5 1022.1 - 0.0 - Mostly clear 10 - - - -
31/02:00am 6.6 ENE 1 3 1022.1 - 0.0 - Mostly clear 10 - - - -
31/01:30am 7.0 SE 1 4 1022.2 - 0.0 - Partly cloudy 10 - - - -
31/01:00am 7.9 S 6 7 1022.3 - 0.0 - Mostly cloudy 10 - - - -
31/12:30am 8.5 SSW 4 5 1022.5 - 0.0 - Mostly cloudy 10 - - - -
31/12:00am 8.2 SSE 7 9 1022.3 R 0.0 Fine Partly cloudy 30 - - - -
 
Date/Time
CST
Temp

°C
Wind Pressure Rain
since 9am
mm
Weather Cloud Vis
km
Sea
Height
m
Swell
Dir
 
Speed
knots
Gust
knots
hPa Trend Height
m
Period
s
Dir
30/11:30pm 9.2 SSE 5 6 1022.4 - 0.0 - Cloudy 10 - - - -
30/11:00pm 9.4 SSE 5 6 1022.5 - 0.0 - Partly cloudy 10 - - - -
30/10:30pm 8.9 S 6 6 1022.5 - 0.0 - Partly cloudy 10 - - - -
30/10:00pm 10.6 SSW 5 6 1022.5 - 0.0 - Partly cloudy 10 - - - -
30/09:30pm 10.7 SSW 5 6 1022.2 - 0.0 - Mostly clear 10 - - - -
30/09:00pm 11.6 S 7 10 1021.7 R 0.0 Fine Mostly cloudy 30 - - - -
30/08:30pm 12.0 S 5 6 1021.3 - 0.0 - Mostly clear 10 - - - -
30/08:00pm 12.0 SSW 6 7 1021.1 - 0.0 - Mostly clear 10 - - - -
30/07:30pm 12.0 SSW 7 9 1020.6 - 0.0 - Partly cloudy 10 - - - -
30/07:00pm 12.1 SSW 9 14 1020.4 - 0.0 - Mostly clear 10 - - - -
30/06:30pm 12.2 SSW 12 16 1020.0 - 0.0 - Mostly clear 9 - - - -
30/06:00pm 12.5 WNW 9 16 1019.7 R 0.0 Showers Mostly cloudy 15 - - - -
30/05:30pm 12.6 NW 8 11 1019.0 - 0.0 - Mostly clear 10 - - - -
30/05:00pm 12.8 NW 11 15 1018.8 - 0.0 - Mostly clear 10 - - - -
30/04:30pm 13.4 NW 11 14 1018.5 - 0.0 - Mostly clear 10 - - - -
30/04:00pm 13.3 NW 11 16 1018.3 - 0.0 - Mostly clear 10 - - - -
30/03:30pm 13.3 NW 11 14 1018.2 - 0.0 - Mostly clear 9 - - - -
30/03:00pm 13.4 NW 14 18 1018.2 R 0.0 Recent precip. Cloudy 9 - - - -
30/02:41pm 13.8 NW 13 20 1018.3 - 0.0 Showers Mostly clear 9 - - - -
30/02:30pm 13.4 NW 15 20 1018.4 - 0.0 - Mostly clear 5 - - - -
30/02:11pm 13.1 NW 16 22 1018.6 - 0.0 Showers Partly cloudy 5 - - - -
30/02:00pm 13.9 NNW 16 20 1018.1 - 0.0 Showers Mostly clear 10 - - - -
30/01:30pm 13.8 NNW 18 23 1017.9 - 0.0 - Mostly cloudy 10 - - - -
30/01:00pm 13.6 NNW 18 22 1018.3 - 0.0 - Mostly cloudy 10 - - - -
30/12:30pm 13.6 NNW 20 28 1018.2 - 0.0 - Mostly cloudy 10 - - - -
30/12:00pm 13.4 NNW 23 28 1018.4 F 0.0 Fine Mostly cloudy 30 - - - -
30/11:30am 13.2 NNW 22 30 1018.7 - 0.0 - Cloudy 10 - - - -
30/11:05am 13.2 NNW 23 33 1018.5 - 0.0 - Partly cloudy 10 - - - -
30/11:00am 13.1 NNW 24 33 1018.6 - 0.0 - Partly cloudy 10 - - - -
30/10:34am 13.3 NNW 19 29 1018.9 - 0.0 - Partly cloudy 10 - - - -
30/10:30am 13.4 NNW 19 26 1019.0 - 0.0 - Partly cloudy 10 - - - -
30/10:07am 13.1 N 17 27 1018.7 - 0.0 - Partly cloudy 10 - - - -
30/10:00am 12.8 N 17 22 1018.6 - 0.0 - Partly cloudy 10 - - - -
30/09:36am 12.4 N 16 26 1019.0 - 0.0 - Partly cloudy 10 - - - -
30/09:30am 12.2 N 12 21 1018.8 - 0.0 - Partly cloudy 9 - - - -
30/09:00am 11.7 NNE 15 20 1019.0 F 0.0 Fine Mostly cloudy 40 - - - -
30/08:30am 11.3 NNE 10 13 1019.4 - 0.0 - Partly cloudy 10 - - - -
30/08:00am 10.5 NNE 14 18 1019.3 - 0.0 - Partly cloudy 10 - - - -
30/07:30am 10.2 NNE 15 20 1019.1 - 0.0 - Partly cloudy 10 - - - -
30/07:16am 10.5 NNE 17 27 1019.2 - 0.0 - Partly cloudy 10 - - - -
30/07:00am 10.3 NNE 16 20 1019.0 - 0.0 - Partly cloudy 10 - - - -
30/06:30am 9.7 NNE 14 19 1019.2 - 0.0 - - 10 - - - -
30/06:00am 9.9 NNE 16 20 1018.9 F 0.0 Fine Mostly cloudy 40 - - - -
30/05:30am 9.8 NNE 16 19 1019.0 - 0.0 - Partly cloudy 10 - - - -
30/05:00am 10.0 NE 14 18 1020.5 - 0.0 Showers Partly cloudy 10 - - - -
30/04:30am 11.0 NNE 11 15 1021.0 - 0.0 - Partly cloudy 10 - - - -
30/04:00am 11.1 NE 12 17 1020.9 - 0.0 - Partly cloudy 10 - - - -
30/03:30am 11.1 N 9 13 1021.2 - 0.0 - Partly cloudy 10 - - - -
30/03:00am 11.3 NNE 12 16 1021.4 F 0.0 Fine Mostly cloudy 40 - - - -
30/02:30am 11.4 NNE 12 16 1022.2 - 0.0 - Cloudy 10 - - - -
30/02:00am 11.6 NNE 13 19 1022.6 - 0.0 - Partly cloudy 10 - - - -
30/01:30am 11.6 NNE 12 16 1022.7 - 0.0 - Cloudy 10 - - - -
30/01:00am 11.3 NE 10 12 1023.0 - 0.0 - Cloudy 10 - - - -
30/12:30am 11.5 NNE 11 15 1023.2 - 0.0 - Cloudy 10 - - - -
30/12:00am 11.4 NNE 11 15 1023.4 F 0.0 Fine Mostly cloudy 40 - - - -
 
Date/Time
CST
Temp

°C
Wind Pressure Rain
since 9am
mm
Weather Cloud Vis
km
Sea
Height
m
Swell
Dir
 
Speed
knots
Gust
knots
hPa Trend Height
m
Period
s
Dir
29/11:30pm 11.0 NNE 9 11 1023.8 - 0.0 - Cloudy 10 - - - -

Other Formats:

Comma delimited format used in spreadsheet applications
http://www.bom.gov.au/fwo/IDS60701/IDS60701.94672.axf

JavaScript Object Notation format (JSON) in row-major order
http://www.bom.gov.au/fwo/IDS60701/IDS60701.94672.json